Terminal Aerodrome Forecast
Issued by NWS Goodland, KS

Home | Current Version | Previous Version | Text Only | Print | Product List | Glossary On
Versions: 1 2 3 4 5 6 7 8 9 10 11 12 13 14 15 16
000
FTUS43 KGLD 181100
TAFGLD
TAF
KGLD 181136Z 1812/1912 19013KT 6SM BR SCT250
     FM181500 18022G32KT P6SM SKC
     FM190100 17017KT P6SM SCT120 BKN200=

USA.gov is the U.S. government's official web portal to all federal, state and local government web resources and services.